createdAt,value
2023-04-08T00:01:46.526Z,2.74
2023-04-08T00:04:52.246Z,2.71
2023-04-08T00:07:58.741Z,2.72
2023-04-08T00:11:04.575Z,2.70
2023-04-08T00:14:13.718Z,2.69
2023-04-08T00:17:19.206Z,2.73
2023-04-08T00:20:28.167Z,2.75
2023-04-08T00:23:33.679Z,2.73
2023-04-08T00:26:40.000Z,2.73
2023-04-08T00:29:48.535Z,2.75
2023-04-08T00:32:54.998Z,2.70
2023-04-08T00:36:00.556Z,2.71
2023-04-08T00:39:08.113Z,2.71
2023-04-08T00:42:13.663Z,2.69
2023-04-08T00:45:23.043Z,2.72
2023-04-08T00:48:28.801Z,2.69
2023-04-08T00:51:36.818Z,2.67
2023-04-08T00:54:42.390Z,2.65
2023-04-08T00:57:49.808Z,2.59
2023-04-08T01:01:08.898Z,2.57
2023-04-08T01:04:32.378Z,2.56
2023-04-08T01:07:44.753Z,2.49
2023-04-08T01:10:59.806Z,2.33
2023-04-08T01:14:13.129Z,2.27
2023-04-08T01:17:26.031Z,2.11
2023-04-08T01:20:33.802Z,2.07
2023-04-08T01:23:57.697Z,2.04
2023-04-08T01:27:10.082Z,2.01
2023-04-08T01:30:18.047Z,2.00
2023-04-08T01:33:27.330Z,2.03
2023-04-08T01:36:36.312Z,2.01
2023-04-08T01:39:46.028Z,1.96
2023-04-08T01:42:59.772Z,1.83
2023-04-08T01:46:06.286Z,1.78
2023-04-08T01:49:14.326Z,1.76
2023-04-08T01:52:24.279Z,1.70
2023-04-08T01:55:32.013Z,1.66
2023-04-08T01:58:50.366Z,1.58
2023-04-08T02:01:57.421Z,1.54
2023-04-08T02:05:03.950Z,0.89
2023-04-08T02:08:10.323Z,1.48
2023-04-08T02:11:16.711Z,1.49
2023-04-08T02:14:26.433Z,1.46
2023-04-08T02:17:47.534Z,1.45
2023-04-08T02:21:05.289Z,1.45
2023-04-08T02:24:18.690Z,1.35
2023-04-08T02:27:28.125Z,1.29
2023-04-08T02:30:41.159Z,1.20
2023-04-08T02:33:47.910Z,1.19
2023-04-08T02:36:55.407Z,1.15
2023-04-08T02:40:01.277Z,1.10
2023-04-08T02:43:07.745Z,1.08
2023-04-08T02:46:16.667Z,1.07
2023-04-08T02:49:23.067Z,1.05
2023-04-08T02:52:28.784Z,0.93
2023-04-08T02:55:35.364Z,1.00
2023-04-08T02:58:41.115Z,1.00
2023-04-08T03:01:50.628Z,1.01
2023-04-08T03:04:56.336Z,0.95
2023-04-08T03:08:02.707Z,0.89
2023-04-08T03:11:08.571Z,0.86
2023-04-08T03:14:15.108Z,0.78
2023-04-08T03:17:24.101Z,0.80
2023-04-08T03:20:30.405Z,0.81
2023-04-08T03:23:36.209Z,0.84
2023-04-08T03:26:42.589Z,0.88
2023-04-08T03:29:48.202Z,0.93
2023-04-08T03:32:57.360Z,0.91
2023-04-08T03:36:03.226Z,0.97
2023-04-08T03:39:10.614Z,1.02
2023-04-08T03:42:16.193Z,1.03
2023-04-08T03:45:22.817Z,1.10
2023-04-08T03:48:31.382Z,1.16
2023-04-08T03:51:38.018Z,1.22
2023-04-08T03:54:43.668Z,1.23
2023-04-08T03:57:50.351Z,1.28
2023-04-08T04:00:56.820Z,1.37
2023-04-08T04:04:06.106Z,1.43
2023-04-08T04:07:11.660Z,1.48
2023-04-08T04:10:18.221Z,1.49
2023-04-08T04:13:23.695Z,1.53
2023-04-08T04:16:32.723Z,1.51
2023-04-08T04:19:41.313Z,1.50
2023-04-08T04:22:48.174Z,1.51
2023-04-08T04:25:53.652Z,1.50
2023-04-08T04:28:59.940Z,1.44
2023-04-08T04:32:05.575Z,1.53
2023-04-08T04:35:15.188Z,1.54
2023-04-08T04:38:20.738Z,1.57
2023-04-08T04:41:27.849Z,1.57
2023-04-08T04:44:33.524Z,1.54
2023-04-08T04:47:39.911Z,1.49
2023-04-08T04:50:48.381Z,1.50
2023-04-08T04:53:54.939Z,1.50
2023-04-08T04:57:00.406Z,1.52
2023-04-08T05:00:08.645Z,1.57
2023-04-08T05:03:14.353Z,1.63
2023-04-08T05:06:23.607Z,1.70
2023-04-08T05:09:29.378Z,1.77
2023-04-08T05:12:35.930Z,1.83
2023-04-08T05:15:41.468Z,1.80
2023-04-08T05:18:47.873Z,1.89
2023-04-08T05:21:56.210Z,1.94
2023-04-08T05:25:02.560Z,2.01
2023-04-08T05:28:08.818Z,1.96
2023-04-08T05:31:15.197Z,1.91
2023-04-08T05:34:23.460Z,1.86
2023-04-08T05:37:33.098Z,1.84
2023-04-08T05:40:38.585Z,1.81
2023-04-08T05:43:44.884Z,1.79
2023-04-08T05:46:50.899Z,1.86
2023-04-08T05:49:57.346Z,1.91
2023-04-08T05:53:05.602Z,1.91
2023-04-08T05:56:12.294Z,1.91
2023-04-08T05:59:17.782Z,1.91
2023-04-08T06:02:24.158Z,1.90
2023-04-08T06:05:30.073Z,1.96
2023-04-08T06:08:39.153Z,2.00
2023-04-08T06:11:44.728Z,2.10
2023-04-08T06:14:51.841Z,2.16
2023-04-08T06:17:57.349Z,2.22
2023-04-08T06:21:03.664Z,2.26
2023-04-08T06:24:12.362Z,2.30
2023-04-08T06:27:18.752Z,2.32
2023-04-08T06:30:24.979Z,2.43
2023-04-08T06:33:31.434Z,2.55
2023-04-08T06:36:37.157Z,2.60
2023-04-08T06:39:47.456Z,2.68
2023-04-08T06:42:52.905Z,2.83
2023-04-08T06:46:13.198Z,2.90
2023-04-08T06:49:18.997Z,2.89
2023-04-08T06:52:25.937Z,2.92
2023-04-08T06:55:34.142Z,2.99
2023-04-08T06:58:40.483Z,3.06
2023-04-08T07:01:47.008Z,3.22
2023-04-08T07:04:53.517Z,3.36
2023-04-08T07:07:59.232Z,3.48
2023-04-08T07:11:08.673Z,3.73
2023-04-08T07:14:15.340Z,3.92
2023-04-08T07:17:21.716Z,4.08
2023-04-08T07:20:28.051Z,4.24
2023-04-08T07:23:34.438Z,4.41
2023-04-08T07:26:43.056Z,4.52
2023-04-08T07:29:49.361Z,4.58
2023-04-08T07:32:58.022Z,4.62
2023-04-08T07:36:05.669Z,4.68
2023-04-08T07:39:11.185Z,4.69
2023-04-08T07:42:20.317Z,4.63
2023-04-08T07:45:25.865Z,4.58
2023-04-08T07:48:32.872Z,4.55
2023-04-08T07:51:38.631Z,4.51
2023-04-08T07:54:45.151Z,4.48
2023-04-08T07:57:53.525Z,4.50
2023-04-08T08:01:00.522Z,4.55
2023-04-08T08:04:07.059Z,4.50
2023-04-08T08:07:13.790Z,4.56
2023-04-08T08:10:19.381Z,4.45
2023-04-08T08:13:28.810Z,4.34
2023-04-08T08:16:35.045Z,4.25
2023-04-08T08:19:41.623Z,4.23
2023-04-08T08:22:56.720Z,4.23
2023-04-08T08:26:04.695Z,4.34
2023-04-08T08:29:12.986Z,4.36
2023-04-08T08:32:19.324Z,4.33
2023-04-08T08:35:24.779Z,4.37
2023-04-08T08:38:31.555Z,4.33
2023-04-08T08:41:38.424Z,4.39
2023-04-08T08:44:47.985Z,4.53
2023-04-08T08:47:54.716Z,4.64
2023-04-08T08:51:01.463Z,4.60
2023-04-08T08:54:07.123Z,4.59
2023-04-08T08:57:21.863Z,4.52
2023-04-08T09:00:39.280Z,4.53
2023-04-08T09:03:46.241Z,4.61
2023-04-08T09:07:07.982Z,4.84
2023-04-08T09:10:14.677Z,4.99
2023-04-08T09:13:20.181Z,5.01
2023-04-08T09:16:29.610Z,4.98
2023-04-08T09:19:35.160Z,5.04
2023-04-08T09:23:02.509Z,5.19
2023-04-08T09:26:12.760Z,5.23
2023-04-08T09:32:51.995Z,5.12
2023-04-08T09:35:58.705Z,5.04
2023-04-08T09:39:04.536Z,5.01
2023-04-08T09:42:16.682Z,5.05
2023-04-08T09:45:23.082Z,5.10
2023-04-08T09:48:43.956Z,5.06
2023-04-08T09:52:01.212Z,4.80
2023-04-08T09:55:12.515Z,5.10
2023-04-08T09:58:27.867Z,5.11
2023-04-08T10:01:43.216Z,5.16
2023-04-08T10:04:58.810Z,5.24
2023-04-08T10:08:05.211Z,5.36
2023-04-08T10:11:11.249Z,5.50
2023-04-08T10:14:17.908Z,5.80
2023-04-08T10:17:36.971Z,6.02
2023-04-08T10:20:51.924Z,6.26
2023-04-08T10:24:01.681Z,6.28
2023-04-08T10:27:43.700Z,6.87
2023-04-08T10:30:51.370Z,6.85
2023-04-08T10:33:58.363Z,7.24
2023-04-08T10:37:06.795Z,7.37
2023-04-08T10:40:23.146Z,7.42
2023-04-08T10:43:28.613Z,7.49
2023-04-08T10:46:41.733Z,7.43
2023-04-08T10:49:48.688Z,7.33
2023-04-08T10:52:58.213Z,7.11
2023-04-08T10:56:13.693Z,7.09
2023-04-08T10:59:32.415Z,7.08
2023-04-08T11:02:41.242Z,7.20
2023-04-08T11:05:48.181Z,7.44
2023-04-08T11:08:56.391Z,7.72
2023-04-08T11:12:03.753Z,7.99
2023-04-08T11:15:10.902Z,8.21
2023-04-08T11:18:18.353Z,8.36
2023-04-08T11:21:29.903Z,8.50
2023-04-08T11:24:40.366Z,8.59
2023-04-08T11:27:46.715Z,8.55
2023-04-08T11:30:54.301Z,8.47
2023-04-08T11:33:59.829Z,8.34
2023-04-08T11:37:07.112Z,8.27
2023-04-08T11:40:16.767Z,8.10
2023-04-08T11:43:23.694Z,8.11
2023-04-08T11:46:29.407Z,8.24
2023-04-08T11:49:48.449Z,8.36
2023-04-08T11:52:57.344Z,8.33
2023-04-08T11:56:26.830Z,8.36
2023-04-08T11:59:32.523Z,8.45
2023-04-08T12:02:39.314Z,8.46
2023-04-08T12:05:46.926Z,8.41
2023-04-08T12:08:53.756Z,8.33
2023-04-08T12:12:02.365Z,8.15
2023-04-08T12:15:11.469Z,8.06
2023-04-08T12:18:17.024Z,7.98
2023-04-08T12:21:23.681Z,7.93
2023-04-08T12:24:29.455Z,7.98
2023-04-08T12:27:38.577Z,8.05
2023-04-08T12:30:44.077Z,8.09
2023-04-08T12:33:50.824Z,8.09
2023-04-08T12:36:57.298Z,8.04
2023-04-08T12:40:03.900Z,8.03
2023-04-08T12:43:12.259Z,8.03
2023-04-08T12:46:18.704Z,8.02
2023-04-08T12:49:24.547Z,8.00
2023-04-08T12:52:30.976Z,7.95
2023-04-08T12:55:37.003Z,7.84
2023-04-08T12:58:46.103Z,7.77
2023-04-08T13:01:51.622Z,7.71
2023-04-08T13:04:58.021Z,7.67
2023-04-08T13:08:03.537Z,7.55
2023-04-08T13:11:11.386Z,7.38
2023-04-08T13:14:19.636Z,7.33
2023-04-08T13:17:26.159Z,7.27
2023-04-08T13:20:31.627Z,7.29
2023-04-08T13:23:38.545Z,7.32
2023-04-08T13:26:44.001Z,7.29
2023-04-08T13:29:53.314Z,7.01
2023-04-08T13:32:58.856Z,6.94
2023-04-08T13:36:06.031Z,6.81
2023-04-08T13:39:11.554Z,6.71
2023-04-08T13:42:17.859Z,6.55
2023-04-08T13:45:27.019Z,6.56
2023-04-08T13:48:33.433Z,6.57
2023-04-08T13:51:39.116Z,6.51
2023-04-08T13:54:45.492Z,6.55
2023-04-08T13:57:51.421Z,6.61
2023-04-08T14:01:00.860Z,6.63
2023-04-08T14:04:07.074Z,6.66
2023-04-08T14:07:13.486Z,6.61
2023-04-08T14:10:19.214Z,6.46
2023-04-08T14:13:25.914Z,6.33
2023-04-08T14:16:35.973Z,6.28
2023-04-08T14:19:42.448Z,6.29
2023-04-08T14:22:47.972Z,6.32
2023-04-08T14:25:54.640Z,6.40
2023-04-08T14:29:00.348Z,6.48
2023-04-08T14:32:09.817Z,6.54
2023-04-08T14:35:15.347Z,6.73
2023-04-08T14:38:21.935Z,6.92
2023-04-08T14:41:27.984Z,6.99
2023-04-08T14:44:34.370Z,7.09
2023-04-08T14:47:42.651Z,7.07
2023-04-08T14:50:49.517Z,7.12
2023-04-08T14:53:54.944Z,7.12
2023-04-08T14:57:02.331Z,7.14
2023-04-08T15:00:10.217Z,7.22
2023-04-08T15:03:19.695Z,7.29
2023-04-08T15:06:34.960Z,7.30
2023-04-08T15:09:42.174Z,7.33
2023-04-08T15:12:47.895Z,7.25
2023-04-08T15:15:54.259Z,7.23
2023-04-08T15:19:02.644Z,7.26
2023-04-08T15:22:08.999Z,7.28
2023-04-08T15:25:14.736Z,7.25
2023-04-08T15:28:21.185Z,7.18
2023-04-08T15:31:26.682Z,7.07
2023-04-08T15:34:36.069Z,7.02
2023-04-08T15:37:41.657Z,7.03
2023-04-08T15:40:48.320Z,7.10
2023-04-08T15:43:56.457Z,7.13
2023-04-08T15:47:03.109Z,7.12
2023-04-08T15:50:13.068Z,7.16
2023-04-08T15:53:19.444Z,7.23
2023-04-08T15:56:25.403Z,7.26
2023-04-08T15:59:32.669Z,7.27
2023-04-08T16:02:38.386Z,7.31
2023-04-08T16:05:47.827Z,7.31
2023-04-08T16:08:53.427Z,7.27
2023-04-08T16:12:00.242Z,7.25
2023-04-08T16:15:05.877Z,7.30
2023-04-08T16:18:13.732Z,7.35
2023-04-08T16:21:22.101Z,7.37
2023-04-08T16:24:28.505Z,7.37
2023-04-08T16:27:33.962Z,7.33
2023-04-08T16:30:43.810Z,7.20
2023-04-08T16:33:49.673Z,7.15
2023-04-08T16:36:59.113Z,7.07
2023-04-08T16:40:04.763Z,7.01
2023-04-08T16:43:12.698Z,7.03
2023-04-08T16:46:21.071Z,6.99
2023-04-08T16:49:28.059Z,6.90
2023-04-08T16:52:36.608Z,6.85
2023-04-08T16:55:42.968Z,6.81
2023-04-08T16:58:48.720Z,6.82
2023-04-08T17:01:55.322Z,6.85
2023-04-08T17:05:01.091Z,6.83
2023-04-08T17:08:10.723Z,6.77
2023-04-08T17:11:18.485Z,6.69
2023-04-08T17:14:24.921Z,6.58
2023-04-08T17:17:30.852Z,6.50
2023-04-08T17:20:37.832Z,6.51
2023-04-08T17:23:46.248Z,6.44
2023-04-08T17:26:53.105Z,6.37
2023-04-08T17:29:59.356Z,6.32
2023-04-08T17:33:05.710Z,6.25
2023-04-08T17:36:12.360Z,6.27
2023-04-08T17:39:21.969Z,6.25
2023-04-08T17:42:27.733Z,6.22
2023-04-08T17:45:34.387Z,6.23
2023-04-08T17:48:39.869Z,6.22
2023-04-08T17:51:46.453Z,6.33
2023-04-08T17:54:54.873Z,6.39
2023-04-08T17:58:01.491Z,6.42
2023-04-08T18:01:07.466Z,6.47
2023-04-08T18:04:14.215Z,6.45
2023-04-08T18:07:20.053Z,6.33
2023-04-08T18:10:29.508Z,6.29
2023-04-08T18:13:35.253Z,6.28
2023-04-08T18:16:41.763Z,6.31
2023-04-08T18:19:47.513Z,6.34
2023-04-08T18:22:54.114Z,6.35
2023-04-08T18:26:02.431Z,6.38
2023-04-08T18:29:08.881Z,6.40
2023-04-08T18:32:14.731Z,6.34
2023-04-08T18:35:21.384Z,6.30
2023-04-08T18:38:27.076Z,6.23
2023-04-08T18:41:37.664Z,6.20
2023-04-08T18:44:43.439Z,6.17
2023-04-08T18:47:49.988Z,6.11
2023-04-08T18:50:56.248Z,6.10
2023-04-08T18:54:02.582Z,6.16
2023-04-08T18:57:11.057Z,6.16
2023-04-08T19:00:17.723Z,6.18
2023-04-08T19:03:23.753Z,6.18
2023-04-08T19:06:30.753Z,6.13
2023-04-08T19:09:36.399Z,6.18
2023-04-08T19:12:46.915Z,6.15
2023-04-08T19:15:52.391Z,6.16
2023-04-08T19:18:58.884Z,6.13
2023-04-08T19:22:06.246Z,6.14
2023-04-08T19:25:13.305Z,6.05
2023-04-08T19:28:21.548Z,6.01
2023-04-08T19:31:27.962Z,5.92
2023-04-08T19:34:33.586Z,5.86
2023-04-08T19:37:39.914Z,5.81
2023-04-08T19:40:45.560Z,5.79
2023-04-08T19:43:54.878Z,5.72
2023-04-08T19:47:00.556Z,5.62
2023-04-08T19:50:08.213Z,5.52
2023-04-08T19:53:13.781Z,5.55
2023-04-08T19:56:20.176Z,5.58
2023-04-08T19:59:28.790Z,5.63
2023-04-08T20:02:35.201Z,5.69
2023-04-08T20:05:40.940Z,5.76
2023-04-08T20:08:47.478Z,5.81
2023-04-08T20:11:53.242Z,5.81
2023-04-08T20:15:02.512Z,5.80
2023-04-08T20:18:08.181Z,5.67
2023-04-08T20:21:15.649Z,5.66
2023-04-08T20:24:21.947Z,5.61
2023-04-08T20:27:28.356Z,5.55
2023-04-08T20:30:36.668Z,5.51
2023-04-08T20:33:44.404Z,5.53
2023-04-08T20:36:49.847Z,5.59
2023-04-08T20:39:56.563Z,5.62
2023-04-08T20:43:01.981Z,5.67
2023-04-08T20:46:11.434Z,5.70
2023-04-08T20:49:19.317Z,5.78
2023-04-08T20:52:25.882Z,5.86
2023-04-08T20:55:31.341Z,5.91
2023-04-08T20:58:38.065Z,5.96
2023-04-08T21:01:46.556Z,6.00
2023-04-08T21:04:53.177Z,6.03
2023-04-08T21:07:58.926Z,6.06
2023-04-08T21:11:05.530Z,6.10
2023-04-08T21:14:11.364Z,6.10
2023-04-08T21:17:20.595Z,6.18
2023-04-08T21:20:26.224Z,6.19
2023-04-08T21:23:32.758Z,6.21
2023-04-08T21:26:38.290Z,6.22
2023-04-08T21:29:44.879Z,6.21
2023-04-08T21:32:53.134Z,6.19
2023-04-08T21:35:59.749Z,6.20
2023-04-08T21:39:05.310Z,6.19
2023-04-08T21:42:11.602Z,6.17
2023-04-08T21:45:18.128Z,6.13
2023-04-08T21:48:27.223Z,6.08
2023-04-08T21:51:32.726Z,6.05
2023-04-08T21:54:39.447Z,6.00
2023-04-08T21:57:44.968Z,5.93
2023-04-08T22:00:51.802Z,5.75
2023-04-08T22:04:00.242Z,5.52
2023-04-08T22:07:06.662Z,5.38
2023-04-08T22:10:13.406Z,5.17
2023-04-08T22:13:20.913Z,5.03
2023-04-08T22:16:26.745Z,4.78
2023-04-08T22:19:35.892Z,4.64
2023-04-08T22:22:41.349Z,4.54
2023-04-08T22:25:47.697Z,4.45
2023-04-08T22:28:53.401Z,4.23
2023-04-08T22:31:59.995Z,4.20
2023-04-08T22:35:10.012Z,4.16
2023-04-08T22:38:16.331Z,4.23
2023-04-08T22:41:23.613Z,4.26
2023-04-08T22:44:30.145Z,4.27
2023-04-08T22:47:36.689Z,4.25
2023-04-08T22:50:45.871Z,4.21
2023-04-08T22:53:51.820Z,4.23
2023-04-08T22:56:58.152Z,4.31
2023-04-08T23:00:05.066Z,4.33
2023-04-08T23:03:11.608Z,4.41
2023-04-08T23:06:20.128Z,4.44
2023-04-08T23:09:27.461Z,4.39
2023-04-08T23:12:32.888Z,4.40
2023-04-08T23:15:39.236Z,4.41
2023-04-08T23:18:44.698Z,4.36
2023-04-08T23:21:53.968Z,4.36
2023-04-08T23:24:59.658Z,4.43
2023-04-08T23:28:05.987Z,4.44
2023-04-08T23:31:11.644Z,4.41
2023-04-08T23:34:17.991Z,4.34
2023-04-08T23:37:26.322Z,4.28
2023-04-08T23:40:32.631Z,4.21
2023-04-08T23:43:38.566Z,4.21
2023-04-08T23:46:44.935Z,4.16
2023-04-08T23:49:50.805Z,4.16
2023-04-08T23:52:59.942Z,4.19
2023-04-08T23:56:10.016Z,4.18
2023-04-08T23:59:16.429Z,4.16
